sensor_id;sensor_type;location;lat;lon;timestamp;P1;durP1;ratioP1;P2;durP2;ratioP2
22780;SDS011;11557;50.884;4.322;2024-03-07T00:00:21;21.85;;;13.45;;
22780;SDS011;11557;50.884;4.322;2024-03-07T00:02:48;19.77;;;12.75;;
22780;SDS011;11557;50.884;4.322;2024-03-07T00:05:15;22.02;;;12.98;;
22780;SDS011;11557;50.884;4.322;2024-03-07T00:07:42;20.23;;;12.80;;
22780;SDS011;11557;50.884;4.322;2024-03-07T00:10:08;20.73;;;13.93;;
22780;SDS011;11557;50.884;4.322;2024-03-07T00:12:34;23.92;;;14.80;;
22780;SDS011;11557;50.884;4.322;2024-03-07T00:15:01;26.50;;;15.80;;
22780;SDS011;11557;50.884;4.322;2024-03-07T00:17:28;28.25;;;15.52;;
22780;SDS011;11557;50.884;4.322;2024-03-07T00:19:56;23.08;;;15.45;;
22780;SDS011;11557;50.884;4.322;2024-03-07T00:22:22;27.05;;;16.20;;
22780;SDS011;11557;50.884;4.322;2024-03-07T00:24:51;24.25;;;14.77;;
22780;SDS011;11557;50.884;4.322;2024-03-07T00:27:20;26.35;;;16.17;;
22780;SDS011;11557;50.884;4.322;2024-03-07T00:29:46;26.08;;;15.75;;
22780;SDS011;11557;50.884;4.322;2024-03-07T00:32:18;26.55;;;16.48;;
22780;SDS011;11557;50.884;4.322;2024-03-07T00:34:45;29.17;;;17.88;;
22780;SDS011;11557;50.884;4.322;2024-03-07T00:37:12;31.95;;;18.67;;
22780;SDS011;11557;50.884;4.322;2024-03-07T00:39:38;31.00;;;19.48;;
22780;SDS011;11557;50.884;4.322;2024-03-07T00:42:03;34.40;;;19.50;;
22780;SDS011;11557;50.884;4.322;2024-03-07T00:44:29;33.38;;;19.25;;
22780;SDS011;11557;50.884;4.322;2024-03-07T00:46:55;35.13;;;19.80;;
22780;SDS011;11557;50.884;4.322;2024-03-07T00:49:22;36.67;;;20.17;;
22780;SDS011;11557;50.884;4.322;2024-03-07T00:51:48;37.35;;;20.65;;
22780;SDS011;11557;50.884;4.322;2024-03-07T00:54:13;38.67;;;21.05;;
22780;SDS011;11557;50.884;4.322;2024-03-07T00:56:39;38.05;;;21.70;;
22780;SDS011;11557;50.884;4.322;2024-03-07T00:59:05;39.25;;;21.88;;
22780;SDS011;11557;50.884;4.322;2024-03-07T01:01:31;33.72;;;20.95;;
22780;SDS011;11557;50.884;4.322;2024-03-07T01:03:59;38.80;;;23.25;;
22780;SDS011;11557;50.884;4.322;2024-03-07T01:06:25;43.17;;;24.70;;
22780;SDS011;11557;50.884;4.322;2024-03-07T01:08:51;39.75;;;22.58;;
22780;SDS011;11557;50.884;4.322;2024-03-07T01:11:17;37.08;;;21.60;;
22780;SDS011;11557;50.884;4.322;2024-03-07T01:13:43;44.20;;;23.98;;
22780;SDS011;11557;50.884;4.322;2024-03-07T01:16:09;40.13;;;22.83;;
22780;SDS011;11557;50.884;4.322;2024-03-07T01:18:35;45.85;;;25.80;;
22780;SDS011;11557;50.884;4.322;2024-03-07T01:21:01;46.67;;;24.33;;
22780;SDS011;11557;50.884;4.322;2024-03-07T01:23:27;42.92;;;25.35;;
22780;SDS011;11557;50.884;4.322;2024-03-07T01:25:54;42.00;;;25.25;;
22780;SDS011;11557;50.884;4.322;2024-03-07T01:28:21;43.58;;;24.55;;
22780;SDS011;11557;50.884;4.322;2024-03-07T01:30:48;44.90;;;25.42;;
22780;SDS011;11557;50.884;4.322;2024-03-07T01:33:15;44.15;;;25.50;;
22780;SDS011;11557;50.884;4.322;2024-03-07T01:35:40;51.70;;;26.63;;
22780;SDS011;11557;50.884;4.322;2024-03-07T01:38:06;50.85;;;27.83;;
22780;SDS011;11557;50.884;4.322;2024-03-07T01:40:33;52.42;;;27.55;;
22780;SDS011;11557;50.884;4.322;2024-03-07T01:43:01;43.00;;;25.23;;
22780;SDS011;11557;50.884;4.322;2024-03-07T01:45:27;52.90;;;29.40;;
22780;SDS011;11557;50.884;4.322;2024-03-07T01:47:52;49.10;;;28.48;;
22780;SDS011;11557;50.884;4.322;2024-03-07T01:50:18;51.45;;;29.27;;
22780;SDS011;11557;50.884;4.322;2024-03-07T01:52:44;54.25;;;29.70;;
22780;SDS011;11557;50.884;4.322;2024-03-07T01:55:11;54.63;;;29.25;;
22780;SDS011;11557;50.884;4.322;2024-03-07T01:57:38;54.60;;;30.10;;
22780;SDS011;11557;50.884;4.322;2024-03-07T02:00:07;53.53;;;30.23;;
22780;SDS011;11557;50.884;4.322;2024-03-07T02:02:34;51.00;;;29.92;;
22780;SDS011;11557;50.884;4.322;2024-03-07T02:05:00;50.90;;;29.25;;
22780;SDS011;11557;50.884;4.322;2024-03-07T02:07:26;54.20;;;30.83;;
22780;SDS011;11557;50.884;4.322;2024-03-07T02:10:05;54.78;;;30.98;;
22780;SDS011;11557;50.884;4.322;2024-03-07T02:12:31;56.38;;;30.73;;
22780;SDS011;11557;50.884;4.322;2024-03-07T02:14:57;59.47;;;31.75;;
22780;SDS011;11557;50.884;4.322;2024-03-07T02:17:24;60.45;;;33.10;;
22780;SDS011;11557;50.884;4.322;2024-03-07T02:19:52;52.40;;;31.45;;
22780;SDS011;11557;50.884;4.322;2024-03-07T02:22:18;62.03;;;33.08;;
22780;SDS011;11557;50.884;4.322;2024-03-07T02:24:44;57.40;;;31.27;;
22780;SDS011;11557;50.884;4.322;2024-03-07T02:27:11;61.75;;;34.85;;
22780;SDS011;11557;50.884;4.322;2024-03-07T02:29:39;59.75;;;33.90;;
22780;SDS011;11557;50.884;4.322;2024-03-07T02:32:07;60.63;;;34.40;;
22780;SDS011;11557;50.884;4.322;2024-03-07T02:34:33;62.25;;;32.95;;
22780;SDS011;11557;50.884;4.322;2024-03-07T02:36:59;59.28;;;33.10;;
22780;SDS011;11557;50.884;4.322;2024-03-07T02:39:25;64.68;;;34.20;;
22780;SDS011;11557;50.884;4.322;2024-03-07T02:41:51;63.03;;;33.42;;
22780;SDS011;11557;50.884;4.322;2024-03-07T02:44:16;62.13;;;33.00;;
22780;SDS011;11557;50.884;4.322;2024-03-07T02:46:42;62.60;;;33.13;;
22780;SDS011;11557;50.884;4.322;2024-03-07T02:49:08;64.60;;;34.33;;
22780;SDS011;11557;50.884;4.322;2024-03-07T02:51:34;65.32;;;34.10;;
22780;SDS011;11557;50.884;4.322;2024-03-07T02:54:00;57.28;;;32.90;;
22780;SDS011;11557;50.884;4.322;2024-03-07T02:56:28;62.42;;;33.58;;
22780;SDS011;11557;50.884;4.322;2024-03-07T02:58:53;58.38;;;32.65;;
22780;SDS011;11557;50.884;4.322;2024-03-07T03:01:19;60.20;;;33.15;;
22780;SDS011;11557;50.884;4.322;2024-03-07T03:03:45;66.65;;;34.30;;
22780;SDS011;11557;50.884;4.322;2024-03-07T03:06:11;65.97;;;34.90;;
22780;SDS011;11557;50.884;4.322;2024-03-07T03:08:37;65.15;;;34.13;;
22780;SDS011;11557;50.884;4.322;2024-03-07T03:11:02;66.43;;;34.47;;
22780;SDS011;11557;50.884;4.322;2024-03-07T03:13:28;65.57;;;34.05;;
22780;SDS011;11557;50.884;4.322;2024-03-07T03:15:55;59.60;;;33.35;;
22780;SDS011;11557;50.884;4.322;2024-03-07T03:18:23;59.13;;;33.63;;
22780;SDS011;11557;50.884;4.322;2024-03-07T03:20:52;64.65;;;33.97;;
22780;SDS011;11557;50.884;4.322;2024-03-07T03:23:18;65.70;;;34.33;;
22780;SDS011;11557;50.884;4.322;2024-03-07T03:25:45;63.65;;;32.75;;
22780;SDS011;11557;50.884;4.322;2024-03-07T03:28:13;58.33;;;32.88;;
22780;SDS011;11557;50.884;4.322;2024-03-07T03:30:39;64.88;;;33.63;;
22780;SDS011;11557;50.884;4.322;2024-03-07T03:33:06;57.63;;;31.70;;
22780;SDS011;11557;50.884;4.322;2024-03-07T03:35:42;66.32;;;33.03;;
22780;SDS011;11557;50.884;4.322;2024-03-07T03:38:08;63.38;;;32.47;;
22780;SDS011;11557;50.884;4.322;2024-03-07T03:40:34;63.15;;;33.92;;
22780;SDS011;11557;50.884;4.322;2024-03-07T03:43:00;59.58;;;33.17;;
22780;SDS011;11557;50.884;4.322;2024-03-07T03:45:26;67.78;;;34.60;;
22780;SDS011;11557;50.884;4.322;2024-03-07T03:47:52;67.10;;;34.05;;
22780;SDS011;11557;50.884;4.322;2024-03-07T03:50:19;61.45;;;32.92;;
22780;SDS011;11557;50.884;4.322;2024-03-07T03:52:45;62.10;;;33.45;;
22780;SDS011;11557;50.884;4.322;2024-03-07T03:55:11;63.22;;;33.75;;
22780;SDS011;11557;50.884;4.322;2024-03-07T03:57:38;61.67;;;34.25;;
22780;SDS011;11557;50.884;4.322;2024-03-07T04:00:05;69.88;;;33.83;;
22780;SDS011;11557;50.884;4.322;2024-03-07T04:02:38;63.08;;;35.25;;
22780;SDS011;11557;50.884;4.322;2024-03-07T04:05:07;61.58;;;34.05;;
22780;SDS011;11557;50.884;4.322;2024-03-07T04:07:34;62.22;;;33.83;;
22780;SDS011;11557;50.884;4.322;2024-03-07T04:10:00;65.75;;;34.88;;
22780;SDS011;11557;50.884;4.322;2024-03-07T04:12:28;63.88;;;34.90;;
22780;SDS011;11557;50.884;4.322;2024-03-07T04:14:54;65.70;;;34.38;;
22780;SDS011;11557;50.884;4.322;2024-03-07T04:17:21;67.32;;;36.58;;
22780;SDS011;11557;50.884;4.322;2024-03-07T04:19:47;64.72;;;34.63;;
22780;SDS011;11557;50.884;4.322;2024-03-07T04:22:13;75.30;;;37.00;;
22780;SDS011;11557;50.884;4.322;2024-03-07T04:24:39;68.82;;;35.20;;
22780;SDS011;11557;50.884;4.322;2024-03-07T04:27:05;69.47;;;36.47;;
22780;SDS011;11557;50.884;4.322;2024-03-07T04:29:32;72.18;;;37.03;;
22780;SDS011;11557;50.884;4.322;2024-03-07T04:31:59;75.40;;;37.33;;
22780;SDS011;11557;50.884;4.322;2024-03-07T04:34:26;75.30;;;37.33;;
22780;SDS011;11557;50.884;4.322;2024-03-07T04:36:53;73.07;;;36.80;;
22780;SDS011;11557;50.884;4.322;2024-03-07T04:39:18;69.60;;;37.05;;
22780;SDS011;11557;50.884;4.322;2024-03-07T04:41:52;74.63;;;37.80;;
22780;SDS011;11557;50.884;4.322;2024-03-07T04:44:19;72.68;;;35.95;;
22780;SDS011;11557;50.884;4.322;2024-03-07T04:46:57;68.93;;;35.78;;
22780;SDS011;11557;50.884;4.322;2024-03-07T04:49:24;71.95;;;37.08;;
22780;SDS011;11557;50.884;4.322;2024-03-07T04:51:50;69.65;;;35.03;;
22780;SDS011;11557;50.884;4.322;2024-03-07T04:54:17;71.35;;;37.63;;
22780;SDS011;11557;50.884;4.322;2024-03-07T04:56:46;74.60;;;36.90;;
22780;SDS011;11557;50.884;4.322;2024-03-07T04:59:13;66.00;;;34.50;;
22780;SDS011;11557;50.884;4.322;2024-03-07T05:01:39;71.57;;;35.30;;
22780;SDS011;11557;50.884;4.322;2024-03-07T05:04:05;74.65;;;37.38;;
22780;SDS011;11557;50.884;4.322;2024-03-07T05:06:31;67.07;;;35.85;;
22780;SDS011;11557;50.884;4.322;2024-03-07T05:09:02;72.60;;;37.10;;
22780;SDS011;11557;50.884;4.322;2024-03-07T05:11:32;78.75;;;37.50;;
22780;SDS011;11557;50.884;4.322;2024-03-07T05:14:00;67.00;;;35.30;;
22780;SDS011;11557;50.884;4.322;2024-03-07T05:16:29;81.10;;;38.13;;
22780;SDS011;11557;50.884;4.322;2024-03-07T05:18:56;72.32;;;37.20;;
22780;SDS011;11557;50.884;4.322;2024-03-07T05:21:26;75.68;;;37.35;;
22780;SDS011;11557;50.884;4.322;2024-03-07T05:24:09;71.78;;;37.20;;
22780;SDS011;11557;50.884;4.322;2024-03-07T05:26:35;78.55;;;38.30;;
22780;SDS011;11557;50.884;4.322;2024-03-07T05:29:08;88.20;;;40.55;;
22780;SDS011;11557;50.884;4.322;2024-03-07T05:31:37;90.05;;;41.78;;
22780;SDS011;11557;50.884;4.322;2024-03-07T05:36:35;104.85;;;39.78;;
22780;SDS011;11557;50.884;4.322;2024-03-07T05:39:01;92.75;;;40.10;;
22780;SDS011;11557;50.884;4.322;2024-03-07T05:41:34;106.40;;;44.58;;
22780;SDS011;11557;50.884;4.322;2024-03-07T05:44:00;101.90;;;42.63;;
22780;SDS011;11557;50.884;4.322;2024-03-07T05:46:26;96.65;;;42.75;;
22780;SDS011;11557;50.884;4.322;2024-03-07T05:48:52;108.57;;;42.85;;
22780;SDS011;11557;50.884;4.322;2024-03-07T05:51:21;94.57;;;40.28;;
22780;SDS011;11557;50.884;4.322;2024-03-07T05:53:50;97.60;;;42.80;;
22780;SDS011;11557;50.884;4.322;2024-03-07T05:56:16;98.90;;;41.00;;
22780;SDS011;11557;50.884;4.322;2024-03-07T05:58:42;98.88;;;43.05;;
22780;SDS011;11557;50.884;4.322;2024-03-07T06:01:08;110.20;;;43.40;;
22780;SDS011;11557;50.884;4.322;2024-03-07T06:03:34;106.75;;;43.53;;
22780;SDS011;11557;50.884;4.322;2024-03-07T06:06:00;112.22;;;43.50;;
22780;SDS011;11557;50.884;4.322;2024-03-07T06:08:26;108.30;;;43.25;;
22780;SDS011;11557;50.884;4.322;2024-03-07T06:10:52;99.38;;;41.50;;
22780;SDS011;11557;50.884;4.322;2024-03-07T06:13:18;103.88;;;42.88;;
22780;SDS011;11557;50.884;4.322;2024-03-07T06:15:44;104.85;;;41.70;;
22780;SDS011;11557;50.884;4.322;2024-03-07T06:18:11;102.07;;;43.13;;
22780;SDS011;11557;50.884;4.322;2024-03-07T06:20:41;99.95;;;42.00;;
22780;SDS011;11557;50.884;4.322;2024-03-07T06:23:07;103.85;;;42.72;;
22780;SDS011;11557;50.884;4.322;2024-03-07T06:25:34;103.82;;;42.33;;
22780;SDS011;11557;50.884;4.322;2024-03-07T06:28:10;101.03;;;42.17;;
22780;SDS011;11557;50.884;4.322;2024-03-07T06:30:39;103.32;;;41.85;;
22780;SDS011;11557;50.884;4.322;2024-03-07T06:33:06;99.47;;;42.10;;
22780;SDS011;11557;50.884;4.322;2024-03-07T06:35:32;101.43;;;40.25;;
22780;SDS011;11557;50.884;4.322;2024-03-07T06:38:08;104.68;;;41.88;;
22780;SDS011;11557;50.884;4.322;2024-03-07T06:40:35;105.57;;;42.35;;
22780;SDS011;11557;50.884;4.322;2024-03-07T06:43:02;94.65;;;41.72;;
22780;SDS011;11557;50.884;4.322;2024-03-07T06:45:37;104.28;;;42.20;;
22780;SDS011;11557;50.884;4.322;2024-03-07T06:48:07;101.13;;;42.78;;
22780;SDS011;11557;50.884;4.322;2024-03-07T06:50:33;110.75;;;42.70;;
22780;SDS011;11557;50.884;4.322;2024-03-07T06:53:00;107.47;;;42.50;;
22780;SDS011;11557;50.884;4.322;2024-03-07T06:55:28;101.30;;;40.83;;
22780;SDS011;11557;50.884;4.322;2024-03-07T06:57:54;104.43;;;41.92;;
22780;SDS011;11557;50.884;4.322;2024-03-07T07:00:20;96.10;;;40.83;;
22780;SDS011;11557;50.884;4.322;2024-03-07T07:02:46;98.93;;;41.38;;
22780;SDS011;11557;50.884;4.322;2024-03-07T07:05:13;93.05;;;40.70;;
22780;SDS011;11557;50.884;4.322;2024-03-07T07:07:43;87.72;;;39.20;;
22780;SDS011;11557;50.884;4.322;2024-03-07T07:10:10;98.53;;;40.67;;
22780;SDS011;11557;50.884;4.322;2024-03-07T07:12:50;94.93;;;40.85;;
22780;SDS011;11557;50.884;4.322;2024-03-07T07:15:17;92.43;;;39.70;;
22780;SDS011;11557;50.884;4.322;2024-03-07T07:17:46;91.43;;;39.88;;
22780;SDS011;11557;50.884;4.322;2024-03-07T07:20:16;93.25;;;40.72;;
22780;SDS011;11557;50.884;4.322;2024-03-07T07:22:43;91.15;;;38.97;;
22780;SDS011;11557;50.884;4.322;2024-03-07T07:25:13;98.28;;;40.45;;
22780;SDS011;11557;50.884;4.322;2024-03-07T07:27:49;88.22;;;38.40;;
22780;SDS011;11557;50.884;4.322;2024-03-07T07:30:20;92.53;;;39.40;;
22780;SDS011;11557;50.884;4.322;2024-03-07T07:32:50;93.32;;;39.60;;
22780;SDS011;11557;50.884;4.322;2024-03-07T07:35:17;95.65;;;40.50;;
22780;SDS011;11557;50.884;4.322;2024-03-07T07:37:44;89.05;;;40.67;;
22780;SDS011;11557;50.884;4.322;2024-03-07T07:40:12;93.68;;;39.20;;
22780;SDS011;11557;50.884;4.322;2024-03-07T07:42:42;95.38;;;40.05;;
22780;SDS011;11557;50.884;4.322;2024-03-07T07:45:08;88.40;;;40.80;;
22780;SDS011;11557;50.884;4.322;2024-03-07T07:47:41;89.15;;;38.53;;
22780;SDS011;11557;50.884;4.322;2024-03-07T07:50:09;90.53;;;41.15;;
22780;SDS011;11557;50.884;4.322;2024-03-07T07:52:43;85.03;;;38.63;;
22780;SDS011;11557;50.884;4.322;2024-03-07T07:55:11;83.15;;;36.92;;
22780;SDS011;11557;50.884;4.322;2024-03-07T07:57:45;92.43;;;39.03;;
22780;SDS011;11557;50.884;4.322;2024-03-07T08:00:16;89.18;;;38.40;;
22780;SDS011;11557;50.884;4.322;2024-03-07T08:02:49;89.05;;;38.38;;
22780;SDS011;11557;50.884;4.322;2024-03-07T08:05:19;88.15;;;37.45;;
22780;SDS011;11557;50.884;4.322;2024-03-07T08:07:48;90.68;;;38.72;;
22780;SDS011;11557;50.884;4.322;2024-03-07T08:10:18;96.03;;;38.92;;
22780;SDS011;11557;50.884;4.322;2024-03-07T08:12:44;85.20;;;37.22;;
22780;SDS011;11557;50.884;4.322;2024-03-07T08:15:11;92.25;;;38.05;;
22780;SDS011;11557;50.884;4.322;2024-03-07T08:17:41;77.68;;;36.60;;
22780;SDS011;11557;50.884;4.322;2024-03-07T08:20:11;93.25;;;37.13;;
22780;SDS011;11557;50.884;4.322;2024-03-07T08:22:41;97.22;;;40.22;;
22780;SDS011;11557;50.884;4.322;2024-03-07T08:25:17;93.93;;;39.58;;
22780;SDS011;11557;50.884;4.322;2024-03-07T08:27:44;84.82;;;36.33;;
22780;SDS011;11557;50.884;4.322;2024-03-07T08:30:13;94.00;;;38.97;;
22780;SDS011;11557;50.884;4.322;2024-03-07T08:32:42;83.15;;;38.65;;
22780;SDS011;11557;50.884;4.322;2024-03-07T08:35:12;87.88;;;38.30;;
22780;SDS011;11557;50.884;4.322;2024-03-07T08:37:38;91.07;;;39.00;;
22780;SDS011;11557;50.884;4.322;2024-03-07T08:40:05;87.15;;;37.95;;
22780;SDS011;11557;50.884;4.322;2024-03-07T08:42:35;86.03;;;37.92;;
22780;SDS011;11557;50.884;4.322;2024-03-07T08:45:02;90.55;;;38.28;;
22780;SDS011;11557;50.884;4.322;2024-03-07T08:47:33;86.10;;;38.28;;
22780;SDS011;11557;50.884;4.322;2024-03-07T08:50:00;85.50;;;37.35;;
22780;SDS011;11557;50.884;4.322;2024-03-07T08:52:27;80.10;;;36.75;;
22780;SDS011;11557;50.884;4.322;2024-03-07T08:54:53;85.28;;;36.13;;
22780;SDS011;11557;50.884;4.322;2024-03-07T08:57:19;88.75;;;39.30;;
22780;SDS011;11557;50.884;4.322;2024-03-07T08:59:47;90.18;;;38.20;;
22780;SDS011;11557;50.884;4.322;2024-03-07T09:02:13;81.43;;;35.35;;
22780;SDS011;11557;50.884;4.322;2024-03-07T09:04:39;75.82;;;35.45;;
22780;SDS011;11557;50.884;4.322;2024-03-07T09:07:05;75.18;;;36.17;;
22780;SDS011;11557;50.884;4.322;2024-03-07T09:09:32;78.15;;;36.00;;
22780;SDS011;11557;50.884;4.322;2024-03-07T09:11:58;81.50;;;36.05;;
22780;SDS011;11557;50.884;4.322;2024-03-07T09:14:26;76.18;;;35.97;;
22780;SDS011;11557;50.884;4.322;2024-03-07T09:16:55;79.93;;;36.47;;
22780;SDS011;11557;50.884;4.322;2024-03-07T09:19:21;77.45;;;37.03;;
22780;SDS011;11557;50.884;4.322;2024-03-07T09:21:51;81.30;;;37.58;;
22780;SDS011;11557;50.884;4.322;2024-03-07T09:24:18;77.70;;;37.85;;
22780;SDS011;11557;50.884;4.322;2024-03-07T09:26:49;81.43;;;36.33;;
22780;SDS011;11557;50.884;4.322;2024-03-07T09:29:16;77.20;;;36.40;;
22780;SDS011;11557;50.884;4.322;2024-03-07T09:31:43;80.75;;;36.35;;
22780;SDS011;11557;50.884;4.322;2024-03-07T09:34:10;73.72;;;36.22;;
22780;SDS011;11557;50.884;4.322;2024-03-07T09:36:37;77.60;;;37.33;;
22780;SDS011;11557;50.884;4.322;2024-03-07T09:39:06;75.80;;;36.45;;
22780;SDS011;11557;50.884;4.322;2024-03-07T09:41:37;73.75;;;37.10;;
22780;SDS011;11557;50.884;4.322;2024-03-07T09:44:04;81.00;;;38.35;;
22780;SDS011;11557;50.884;4.322;2024-03-07T09:46:33;74.75;;;38.60;;
22780;SDS011;11557;50.884;4.322;2024-03-07T09:49:00;72.95;;;36.90;;
22780;SDS011;11557;50.884;4.322;2024-03-07T09:51:26;76.95;;;37.08;;
22780;SDS011;11557;50.884;4.322;2024-03-07T09:53:53;70.45;;;36.38;;
22780;SDS011;11557;50.884;4.322;2024-03-07T09:56:23;68.97;;;36.38;;
22780;SDS011;11557;50.884;4.322;2024-03-07T09:58:51;73.18;;;37.33;;
22780;SDS011;11557;50.884;4.322;2024-03-07T10:01:20;75.22;;;37.47;;
22780;SDS011;11557;50.884;4.322;2024-03-07T10:03:50;71.93;;;38.95;;
22780;SDS011;11557;50.884;4.322;2024-03-07T10:06:22;70.57;;;38.05;;
22780;SDS011;11557;50.884;4.322;2024-03-07T10:08:48;70.13;;;36.10;;
22780;SDS011;11557;50.884;4.322;2024-03-07T10:11:16;73.25;;;38.80;;
22780;SDS011;11557;50.884;4.322;2024-03-07T10:13:41;74.72;;;39.05;;
22780;SDS011;11557;50.884;4.322;2024-03-07T10:16:08;68.80;;;38.38;;
22780;SDS011;11557;50.884;4.322;2024-03-07T10:18:42;73.60;;;38.28;;
22780;SDS011;11557;50.884;4.322;2024-03-07T10:21:09;69.65;;;37.85;;
22780;SDS011;11557;50.884;4.322;2024-03-07T10:23:36;61.00;;;36.75;;
22780;SDS011;11557;50.884;4.322;2024-03-07T10:26:03;62.60;;;35.95;;
22780;SDS011;11557;50.884;4.322;2024-03-07T10:28:30;63.70;;;35.53;;
22780;SDS011;11557;50.884;4.322;2024-03-07T10:30:59;60.03;;;35.38;;
22780;SDS011;11557;50.884;4.322;2024-03-07T10:33:28;58.20;;;34.88;;
22780;SDS011;11557;50.884;4.322;2024-03-07T10:35:58;56.60;;;34.40;;
22780;SDS011;11557;50.884;4.322;2024-03-07T10:38:24;61.05;;;35.03;;
22780;SDS011;11557;50.884;4.322;2024-03-07T10:40:53;58.55;;;34.55;;
22780;SDS011;11557;50.884;4.322;2024-03-07T10:43:23;56.72;;;34.47;;
22780;SDS011;11557;50.884;4.322;2024-03-07T10:45:53;59.35;;;34.65;;
22780;SDS011;11557;50.884;4.322;2024-03-07T10:48:22;56.53;;;33.50;;
22780;SDS011;11557;50.884;4.322;2024-03-07T10:53:39;58.47;;;33.80;;
22780;SDS011;11557;50.884;4.322;2024-03-07T10:56:18;54.50;;;31.52;;
22780;SDS011;11557;50.884;4.322;2024-03-07T11:01:49;58.92;;;33.30;;
22780;SDS011;11557;50.884;4.322;2024-03-07T11:04:24;54.17;;;31.33;;
22780;SDS011;11557;50.884;4.322;2024-03-07T11:06:50;50.83;;;31.05;;
22780;SDS011;11557;50.884;4.322;2024-03-07T11:09:16;53.17;;;31.92;;
22780;SDS011;11557;50.884;4.322;2024-03-07T11:11:48;50.80;;;31.58;;
22780;SDS011;11557;50.884;4.322;2024-03-07T11:14:14;51.92;;;30.40;;
22780;SDS011;11557;50.884;4.322;2024-03-07T11:16:42;56.03;;;32.03;;
22780;SDS011;11557;50.884;4.322;2024-03-07T11:19:18;53.15;;;30.48;;
22780;SDS011;11557;50.884;4.322;2024-03-07T11:21:51;55.15;;;30.40;;
22780;SDS011;11557;50.884;4.322;2024-03-07T11:24:29;53.53;;;30.17;;
22780;SDS011;11557;50.884;4.322;2024-03-07T11:26:58;54.35;;;31.48;;
22780;SDS011;11557;50.884;4.322;2024-03-07T11:32:15;48.78;;;28.77;;
22780;SDS011;11557;50.884;4.322;2024-03-07T11:34:42;50.63;;;29.25;;
22780;SDS011;11557;50.884;4.322;2024-03-07T11:37:16;48.05;;;28.88;;
22780;SDS011;11557;50.884;4.322;2024-03-07T11:42:09;42.33;;;27.40;;
22780;SDS011;11557;50.884;4.322;2024-03-07T11:44:44;47.63;;;27.77;;
22780;SDS011;11557;50.884;4.322;2024-03-07T11:47:12;42.55;;;26.42;;
22780;SDS011;11557;50.884;4.322;2024-03-07T11:49:44;39.25;;;24.70;;
22780;SDS011;11557;50.884;4.322;2024-03-07T11:52:14;40.00;;;25.00;;
22780;SDS011;11557;50.884;4.322;2024-03-07T11:54:41;47.33;;;27.77;;
22780;SDS011;11557;50.884;4.322;2024-03-07T11:57:21;42.92;;;26.27;;
22780;SDS011;11557;50.884;4.322;2024-03-07T11:59:57;40.70;;;25.27;;
22780;SDS011;11557;50.884;4.322;2024-03-07T12:02:26;42.08;;;24.83;;
22780;SDS011;11557;50.884;4.322;2024-03-07T12:04:54;37.22;;;24.00;;
22780;SDS011;11557;50.884;4.322;2024-03-07T12:07:22;42.17;;;25.00;;
22780;SDS011;11557;50.884;4.322;2024-03-07T12:09:58;44.08;;;25.85;;
22780;SDS011;11557;50.884;4.322;2024-03-07T12:12:29;37.03;;;24.55;;
22780;SDS011;11557;50.884;4.322;2024-03-07T12:14:55;39.72;;;24.65;;
22780;SDS011;11557;50.884;4.322;2024-03-07T12:17:21;40.55;;;24.63;;
22780;SDS011;11557;50.884;4.322;2024-03-07T12:19:47;36.95;;;23.52;;
22780;SDS011;11557;50.884;4.322;2024-03-07T12:22:18;37.30;;;23.52;;
22780;SDS011;11557;50.884;4.322;2024-03-07T12:25:02;34.83;;;22.55;;
22780;SDS011;11557;50.884;4.322;2024-03-07T12:27:33;35.40;;;21.38;;
22780;SDS011;11557;50.884;4.322;2024-03-07T12:29:59;33.15;;;22.67;;
22780;SDS011;11557;50.884;4.322;2024-03-07T12:32:32;34.87;;;22.30;;
22780;SDS011;11557;50.884;4.322;2024-03-07T12:34:58;36.83;;;21.75;;
22780;SDS011;11557;50.884;4.322;2024-03-07T12:37:24;36.05;;;22.88;;
22780;SDS011;11557;50.884;4.322;2024-03-07T12:39:54;37.97;;;25.05;;
22780;SDS011;11557;50.884;4.322;2024-03-07T12:42:30;40.05;;;24.83;;
22780;SDS011;11557;50.884;4.322;2024-03-07T12:44:57;41.40;;;26.30;;
22780;SDS011;11557;50.884;4.322;2024-03-07T12:47:24;39.30;;;25.85;;
22780;SDS011;11557;50.884;4.322;2024-03-07T12:49:51;40.67;;;25.27;;
22780;SDS011;11557;50.884;4.322;2024-03-07T12:52:17;41.28;;;25.48;;
22780;SDS011;11557;50.884;4.322;2024-03-07T12:54:42;36.50;;;24.52;;
22780;SDS011;11557;50.884;4.322;2024-03-07T12:57:11;41.10;;;24.90;;
22780;SDS011;11557;50.884;4.322;2024-03-07T12:59:37;38.50;;;25.15;;
22780;SDS011;11557;50.884;4.322;2024-03-07T13:02:07;37.55;;;23.98;;
22780;SDS011;11557;50.884;4.322;2024-03-07T13:04:34;39.00;;;24.20;;
22780;SDS011;11557;50.884;4.322;2024-03-07T13:07:02;41.08;;;24.83;;
22780;SDS011;11557;50.884;4.322;2024-03-07T13:09:35;38.65;;;25.15;;
22780;SDS011;11557;50.884;4.322;2024-03-07T13:12:03;38.40;;;25.07;;
22780;SDS011;11557;50.884;4.322;2024-03-07T13:14:32;37.25;;;24.42;;
22780;SDS011;11557;50.884;4.322;2024-03-07T13:17:04;31.70;;;23.15;;
22780;SDS011;11557;50.884;4.322;2024-03-07T13:19:31;37.17;;;24.65;;
22780;SDS011;11557;50.884;4.322;2024-03-07T13:21:57;34.15;;;23.95;;
22780;SDS011;11557;50.884;4.322;2024-03-07T13:24:24;34.22;;;22.63;;
22780;SDS011;11557;50.884;4.322;2024-03-07T13:26:52;35.72;;;24.00;;
22780;SDS011;11557;50.884;4.322;2024-03-07T13:29:19;36.22;;;23.75;;
22780;SDS011;11557;50.884;4.322;2024-03-07T13:31:49;39.22;;;25.15;;
22780;SDS011;11557;50.884;4.322;2024-03-07T13:34:16;37.90;;;24.95;;
22780;SDS011;11557;50.884;4.322;2024-03-07T13:36:42;34.63;;;24.55;;
22780;SDS011;11557;50.884;4.322;2024-03-07T13:39:09;36.47;;;25.30;;
22780;SDS011;11557;50.884;4.322;2024-03-07T13:41:40;37.28;;;23.35;;
22780;SDS011;11557;50.884;4.322;2024-03-07T13:44:13;33.80;;;22.73;;
22780;SDS011;11557;50.884;4.322;2024-03-07T13:46:39;36.30;;;23.45;;
22780;SDS011;11557;50.884;4.322;2024-03-07T13:49:05;37.17;;;23.48;;
22780;SDS011;11557;50.884;4.322;2024-03-07T13:51:39;31.27;;;21.98;;
22780;SDS011;11557;50.884;4.322;2024-03-07T13:54:18;33.00;;;23.58;;
22780;SDS011;11557;50.884;4.322;2024-03-07T14:14:54;35.58;;;23.63;;
22780;SDS011;11557;50.884;4.322;2024-03-07T14:29:39;29.45;;;19.95;;
22780;SDS011;11557;50.884;4.322;2024-03-07T14:32:14;33.63;;;19.35;;
22780;SDS011;11557;50.884;4.322;2024-03-07T14:35:03;30.38;;;18.70;;
22780;SDS011;11557;50.884;4.322;2024-03-07T14:37:46;31.23;;;20.05;;
22780;SDS011;11557;50.884;4.322;2024-03-07T14:40:18;29.58;;;19.08;;
22780;SDS011;11557;50.884;4.322;2024-03-07T14:42:46;30.10;;;18.60;;
22780;SDS011;11557;50.884;4.322;2024-03-07T14:45:21;31.52;;;19.10;;
22780;SDS011;11557;50.884;4.322;2024-03-07T14:47:50;32.30;;;20.75;;
22780;SDS011;11557;50.884;4.322;2024-03-07T14:50:20;34.53;;;21.88;;
22780;SDS011;11557;50.884;4.322;2024-03-07T14:52:47;31.67;;;21.67;;
22780;SDS011;11557;50.884;4.322;2024-03-07T14:55:13;30.52;;;22.13;;
22780;SDS011;11557;50.884;4.322;2024-03-07T14:57:40;30.20;;;21.80;;
22780;SDS011;11557;50.884;4.322;2024-03-07T15:00:07;33.80;;;22.30;;
22780;SDS011;11557;50.884;4.322;2024-03-07T15:02:44;32.17;;;21.63;;
22780;SDS011;11557;50.884;4.322;2024-03-07T15:05:11;29.80;;;20.63;;
22780;SDS011;11557;50.884;4.322;2024-03-07T15:07:37;32.20;;;21.00;;
22780;SDS011;11557;50.884;4.322;2024-03-07T15:10:03;26.00;;;18.95;;